sensor_id;sensor_type;location;lat;lon;timestamp;pressure;altitude;pressure_sealevel;temperature;humidity
8637;BME280;4356;49.068;8.658;2024-01-11T00:02:07;100978.19;;;13.98;33.00
8637;BME280;4356;49.068;8.658;2024-01-11T00:04:32;100969.06;;;13.91;32.77
8637;BME280;4356;49.068;8.658;2024-01-11T00:06:57;100969.69;;;13.93;33.44
8637;BME280;4356;49.068;8.658;2024-01-11T00:09:23;100979.69;;;13.93;32.77
8637;BME280;4356;49.068;8.658;2024-01-11T00:11:48;100981.72;;;13.91;32.95
8637;BME280;4356;49.068;8.658;2024-01-11T00:14:14;100992.34;;;13.92;33.44
8637;BME280;4356;49.068;8.658;2024-01-11T00:16:39;100987.28;;;13.89;33.34
8637;BME280;4356;49.068;8.658;2024-01-11T00:19:04;100988.28;;;13.88;33.02
8637;BME280;4356;49.068;8.658;2024-01-11T00:21:30;100985.91;;;13.85;33.27
8637;BME280;4356;49.068;8.658;2024-01-11T00:23:55;100989.63;;;13.84;33.04
8637;BME280;4356;49.068;8.658;2024-01-11T00:26:21;100997.25;;;13.89;33.42
8637;BME280;4356;49.068;8.658;2024-01-11T00:28:46;100989.63;;;13.84;33.37
8637;BME280;4356;49.068;8.658;2024-01-11T00:31:12;100981.84;;;13.81;33.53
8637;BME280;4356;49.068;8.658;2024-01-11T00:33:37;100982.72;;;13.82;33.36
8637;BME280;4356;49.068;8.658;2024-01-11T00:36:03;100982.38;;;13.77;33.07
8637;BME280;4356;49.068;8.658;2024-01-11T00:38:28;100989.09;;;13.81;33.07
8637;BME280;4356;49.068;8.658;2024-01-11T00:40:54;100990.31;;;13.78;33.34
8637;BME280;4356;49.068;8.658;2024-01-11T00:43:19;100990.31;;;13.78;33.48
8637;BME280;4356;49.068;8.658;2024-01-11T00:45:45;100995.53;;;13.80;33.42
8637;BME280;4356;49.068;8.658;2024-01-11T00:48:11;100994.84;;;13.78;33.40
8637;BME280;4356;49.068;8.658;2024-01-11T00:50:37;100987.09;;;13.75;33.03
8637;BME280;4356;49.068;8.658;2024-01-11T00:53:02;100990.59;;;13.75;33.43
8637;BME280;4356;49.068;8.658;2024-01-11T00:55:28;100981.16;;;13.71;33.21
8637;BME280;4356;49.068;8.658;2024-01-11T00:57:54;100991.63;;;13.74;33.65
8637;BME280;4356;49.068;8.658;2024-01-11T01:00:19;100986.72;;;13.70;33.15
8637;BME280;4356;49.068;8.658;2024-01-11T01:02:45;101008.00;;;13.73;33.30
8637;BME280;4356;49.068;8.658;2024-01-11T01:05:11;100975.22;;;13.60;33.19
8637;BME280;4356;49.068;8.658;2024-01-11T01:07:36;100988.41;;;13.71;33.40
8637;BME280;4356;49.068;8.658;2024-01-11T01:10:02;100997.50;;;13.70;33.35
8637;BME280;4356;49.068;8.658;2024-01-11T01:12:27;100989.41;;;13.70;33.38
8637;BME280;4356;49.068;8.658;2024-01-11T01:14:54;100992.63;;;13.65;33.36
8637;BME280;4356;49.068;8.658;2024-01-11T01:17:19;100998.88;;;13.66;33.57
8637;BME280;4356;49.068;8.658;2024-01-11T01:19:45;100996.34;;;13.64;32.98
8637;BME280;4356;49.068;8.658;2024-01-11T01:22:10;100997.66;;;13.60;33.45
8637;BME280;4356;49.068;8.658;2024-01-11T01:24:35;101001.88;;;13.63;33.38
8637;BME280;4356;49.068;8.658;2024-01-11T01:27:01;101000.38;;;13.60;33.08
8637;BME280;4356;49.068;8.658;2024-01-11T01:29:27;101001.69;;;13.56;33.33
8637;BME280;4356;49.068;8.658;2024-01-11T01:31:52;101018.25;;;13.61;32.90
8637;BME280;4356;49.068;8.658;2024-01-11T01:34:18;101013.19;;;13.58;33.86
8637;BME280;4356;49.068;8.658;2024-01-11T01:36:44;101017.91;;;13.56;33.32
8637;BME280;4356;49.068;8.658;2024-01-11T01:39:09;101016.22;;;13.55;33.39
8637;BME280;4356;49.068;8.658;2024-01-11T01:41:34;101022.63;;;13.54;33.07
8637;BME280;4356;49.068;8.658;2024-01-11T01:44:00;101025.31;;;13.54;33.29
8637;BME280;4356;49.068;8.658;2024-01-11T01:46:26;101020.25;;;13.51;33.40
8637;BME280;4356;49.068;8.658;2024-01-11T01:48:54;101027.03;;;13.55;32.95
8637;BME280;4356;49.068;8.658;2024-01-11T01:51:21;101030.03;;;13.52;33.25
8637;BME280;4356;49.068;8.658;2024-01-11T01:53:48;101028.53;;;13.50;33.28
8637;BME280;4356;49.068;8.658;2024-01-11T01:56:15;101023.94;;;13.50;33.30
8637;BME280;4356;49.068;8.658;2024-01-11T01:58:42;101030.22;;;13.51;33.39
8637;BME280;4356;49.068;8.658;2024-01-11T02:01:08;101026.81;;;13.49;33.48
8637;BME280;4356;49.068;8.658;2024-01-11T02:03:35;101016.66;;;13.42;32.99
8637;BME280;4356;49.068;8.658;2024-01-11T02:06:02;101019.88;;;13.46;33.06
8637;BME280;4356;49.068;8.658;2024-01-11T02:08:29;101014.97;;;13.41;33.39
8637;BME280;4356;49.068;8.658;2024-01-11T02:10:56;101020.22;;;13.43;33.14
8637;BME280;4356;49.068;8.658;2024-01-11T02:13:21;101039.81;;;13.45;33.30
8637;BME280;4356;49.068;8.658;2024-01-11T02:15:47;101017.16;;;13.38;33.37
8637;BME280;4356;49.068;8.658;2024-01-11T02:18:12;101024.94;;;13.41;33.39
8637;BME280;4356;49.068;8.658;2024-01-11T02:20:38;101035.41;;;13.44;33.41
8637;BME280;4356;49.068;8.658;2024-01-11T02:23:12;101026.13;;;13.38;32.89
8637;BME280;4356;49.068;8.658;2024-01-11T02:25:39;101029.34;;;13.42;33.11
8637;BME280;4356;49.068;8.658;2024-01-11T02:28:05;101030.50;;;13.39;33.39
8637;BME280;4356;49.068;8.658;2024-01-11T02:30:30;101034.22;;;13.38;33.27
8637;BME280;4356;49.068;8.658;2024-01-11T02:32:56;101026.25;;;13.37;33.58
8637;BME280;4356;49.068;8.658;2024-01-11T02:35:22;101027.09;;;13.37;32.92
8637;BME280;4356;49.068;8.658;2024-01-11T02:37:49;101026.59;;;13.34;32.99
8637;BME280;4356;49.068;8.658;2024-01-11T02:40:14;101022.19;;;13.33;33.24
8637;BME280;4356;49.068;8.658;2024-01-11T02:42:40;101021.19;;;13.34;33.24
8637;BME280;4356;49.068;8.658;2024-01-11T02:45:06;101017.63;;;13.33;33.46
8637;BME280;4356;49.068;8.658;2024-01-11T02:47:32;101017.28;;;13.28;33.12
8637;BME280;4356;49.068;8.658;2024-01-11T02:49:57;101017.09;;;13.30;33.29
8637;BME280;4356;49.068;8.658;2024-01-11T02:52:23;101024.91;;;13.33;33.14
8637;BME280;4356;49.068;8.658;2024-01-11T02:54:48;101008.66;;;13.25;33.46
8637;BME280;4356;49.068;8.658;2024-01-11T02:57:14;101022.84;;;13.27;33.73
8637;BME280;4356;49.068;8.658;2024-01-11T02:59:39;101025.38;;;13.28;33.52
8637;BME280;4356;49.068;8.658;2024-01-11T03:02:05;101025.38;;;13.28;33.22
8637;BME280;4356;49.068;8.658;2024-01-11T03:04:30;101015.06;;;13.24;33.25
8637;BME280;4356;49.068;8.658;2024-01-11T03:06:56;101015.91;;;13.24;33.51
8637;BME280;4356;49.068;8.658;2024-01-11T03:09:21;101020.47;;;13.24;33.43
8637;BME280;4356;49.068;8.658;2024-01-11T03:11:46;101004.91;;;13.18;33.14
8637;BME280;4356;49.068;8.658;2024-01-11T03:14:12;101000.38;;;13.18;33.47
8637;BME280;4356;49.068;8.658;2024-01-11T03:16:37;101020.47;;;13.24;33.93
8637;BME280;4356;49.068;8.658;2024-01-11T03:19:05;101016.22;;;13.21;33.29
8637;BME280;4356;49.068;8.658;2024-01-11T03:21:30;101003.22;;;13.17;33.85
8637;BME280;4356;49.068;8.658;2024-01-11T03:23:56;101015.53;;;13.19;33.61
8637;BME280;4356;49.068;8.658;2024-01-11T03:26:21;101009.78;;;13.14;33.00
8637;BME280;4356;49.068;8.658;2024-01-11T03:28:46;101013.34;;;13.15;33.43
8637;BME280;4356;49.068;8.658;2024-01-11T03:31:12;101011.47;;;13.15;33.48
8637;BME280;4356;49.068;8.658;2024-01-11T03:33:37;101007.25;;;13.13;33.37
8637;BME280;4356;49.068;8.658;2024-01-11T03:36:07;101018.41;;;13.18;33.44
8637;BME280;4356;49.068;8.658;2024-01-11T03:38:33;101014.31;;;13.14;33.23
8637;BME280;4356;49.068;8.658;2024-01-11T03:40:58;101018.91;;;13.13;33.42
8637;BME280;4356;49.068;8.658;2024-01-11T03:43:23;101004.72;;;13.11;33.30
8637;BME280;4356;49.068;8.658;2024-01-11T03:45:49;101014.50;;;13.12;33.32
8637;BME280;4356;49.068;8.658;2024-01-11T03:48:14;101012.66;;;13.13;33.09
8637;BME280;4356;49.068;8.658;2024-01-11T03:50:40;101004.03;;;13.09;33.05
8637;BME280;4356;49.068;8.658;2024-01-11T03:53:05;101005.53;;;13.12;33.27
8637;BME280;4356;49.068;8.658;2024-01-11T03:55:30;101008.41;;;13.10;33.21
8637;BME280;4356;49.068;8.658;2024-01-11T03:57:56;101008.56;;;13.09;33.22
8637;BME280;4356;49.068;8.658;2024-01-11T04:00:21;101004.19;;;13.08;33.16
8637;BME280;4356;49.068;8.658;2024-01-11T04:02:46;100994.97;;;13.01;33.50
8637;BME280;4356;49.068;8.658;2024-01-11T04:05:12;101004.19;;;13.08;33.17
8637;BME280;4356;49.068;8.658;2024-01-11T04:07:37;100995.72;;;13.03;33.19
8637;BME280;4356;49.068;8.658;2024-01-11T04:10:03;100999.09;;;13.05;33.31
8637;BME280;4356;49.068;8.658;2024-01-11T04:12:29;100998.94;;;13.06;33.27
8637;BME280;4356;49.068;8.658;2024-01-11T04:14:54;101004.31;;;13.06;33.41
8637;BME280;4356;49.068;8.658;2024-01-11T04:17:20;100999.78;;;13.07;33.75
8637;BME280;4356;49.068;8.658;2024-01-11T04:19:45;100995.72;;;13.03;33.09
8637;BME280;4356;49.068;8.658;2024-01-11T04:22:10;101002.81;;;13.04;33.31
8637;BME280;4356;49.068;8.658;2024-01-11T04:24:36;100999.41;;;13.02;33.18
8637;BME280;4356;49.068;8.658;2024-01-11T04:27:01;100998.53;;;13.01;33.69
8637;BME280;4356;49.068;8.658;2024-01-11T04:29:27;101000.38;;;13.01;33.94
8637;BME280;4356;49.068;8.658;2024-01-11T04:31:52;101003.94;;;13.01;33.09
8637;BME280;4356;49.068;8.658;2024-01-11T04:34:17;100994.00;;;13.02;33.59
8637;BME280;4356;49.068;8.658;2024-01-11T04:36:43;100999.41;;;13.02;33.41
8637;BME280;4356;49.068;8.658;2024-01-11T04:39:08;100998.53;;;13.01;33.46
8637;BME280;4356;49.068;8.658;2024-01-11T04:41:35;101004.78;;;13.02;33.42
8637;BME280;4356;49.068;8.658;2024-01-11T04:44:02;101002.56;;;12.97;33.53
8637;BME280;4356;49.068;8.658;2024-01-11T04:46:27;101010.50;;;12.99;33.68
8637;BME280;4356;49.068;8.658;2024-01-11T04:48:52;101008.97;;;12.96;33.51
8637;BME280;4356;49.068;8.658;2024-01-11T04:51:19;101016.91;;;12.98;33.43
8637;BME280;4356;49.068;8.658;2024-01-11T04:53:45;101013.34;;;12.97;33.38
8637;BME280;4356;49.068;8.658;2024-01-11T04:56:12;101018.63;;;12.99;32.96
8637;BME280;4356;49.068;8.658;2024-01-11T04:58:43;101020.44;;;12.98;33.27
8637;BME280;4356;49.068;8.658;2024-01-11T05:01:13;101017.22;;;12.95;33.41
8637;BME280;4356;49.068;8.658;2024-01-11T05:03:38;101010.13;;;12.94;33.49
8637;BME280;4356;49.068;8.658;2024-01-11T05:06:04;101022.63;;;12.95;33.97
8637;BME280;4356;49.068;8.658;2024-01-11T05:08:30;101020.09;;;12.93;33.31
8637;BME280;4356;49.068;8.658;2024-01-11T05:10:55;101022.91;;;12.92;33.37
8637;BME280;4356;49.068;8.658;2024-01-11T05:13:22;101023.94;;;12.91;33.77
8637;BME280;4356;49.068;8.658;2024-01-11T05:15:47;101021.25;;;12.91;33.62
8637;BME280;4356;49.068;8.658;2024-01-11T05:18:13;101029.34;;;12.91;33.79
8637;BME280;4356;49.068;8.658;2024-01-11T05:20:39;101027.66;;;12.90;33.83
8637;BME280;4356;49.068;8.658;2024-01-11T05:23:04;101025.63;;;12.92;33.85
8637;BME280;4356;49.068;8.658;2024-01-11T05:25:31;101033.06;;;12.90;33.74
8637;BME280;4356;49.068;8.658;2024-01-11T05:28:01;101037.59;;;12.89;33.93
8637;BME280;4356;49.068;8.658;2024-01-11T05:30:28;101027.13;;;12.86;33.55
8637;BME280;4356;49.068;8.658;2024-01-11T05:32:54;101043.44;;;12.85;33.80
8637;BME280;4356;49.068;8.658;2024-01-11T05:35:20;101051.41;;;12.86;33.52
8637;BME280;4356;49.068;8.658;2024-01-11T05:37:45;101051.72;;;12.83;33.71
8637;BME280;4356;49.068;8.658;2024-01-11T05:40:11;101044.63;;;12.82;34.14
8637;BME280;4356;49.068;8.658;2024-01-11T05:42:36;101041.59;;;12.85;33.90
8637;BME280;4356;49.068;8.658;2024-01-11T05:45:04;101046.84;;;12.87;33.46
8637;BME280;4356;49.068;8.658;2024-01-11T05:47:30;101047.16;;;12.84;33.86
8637;BME280;4356;49.068;8.658;2024-01-11T05:49:55;101053.41;;;12.84;34.15
8637;BME280;4356;49.068;8.658;2024-01-11T05:52:20;101052.56;;;12.84;33.31
8637;BME280;4356;49.068;8.658;2024-01-11T05:54:46;101053.53;;;12.83;33.80
8637;BME280;4356;49.068;8.658;2024-01-11T05:57:12;101060.50;;;12.85;33.62
8637;BME280;4356;49.068;8.658;2024-01-11T05:59:37;101049.16;;;12.82;33.67
8637;BME280;4356;49.068;8.658;2024-01-11T06:02:08;101053.25;;;12.86;33.51
8637;BME280;4356;49.068;8.658;2024-01-11T06:04:33;101061.03;;;12.89;33.85
8637;BME280;4356;49.068;8.658;2024-01-11T06:06:58;101061.88;;;12.89;33.74
8637;BME280;4356;49.068;8.658;2024-01-11T06:09:24;101060.69;;;12.92;33.70
8637;BME280;4356;49.068;8.658;2024-01-11T06:11:49;101054.84;;;12.96;33.94
8637;BME280;4356;49.068;8.658;2024-01-11T06:14:15;101045.88;;;12.96;33.58
8637;BME280;4356;49.068;8.658;2024-01-11T06:16:40;101058.91;;;13.00;33.74
8637;BME280;4356;49.068;8.658;2024-01-11T06:19:06;101066.94;;;13.10;33.89
8637;BME280;4356;49.068;8.658;2024-01-11T06:21:32;101055.13;;;13.11;33.45
8637;BME280;4356;49.068;8.658;2024-01-11T06:23:58;101047.22;;;13.09;33.51
8637;BME280;4356;49.068;8.658;2024-01-11T06:26:23;101050.09;;;13.16;33.80
8637;BME280;4356;49.068;8.658;2024-01-11T06:28:49;101066.38;;;13.24;33.95
8637;BME280;4356;49.068;8.658;2024-01-11T06:31:14;101064.34;;;13.26;34.10
8637;BME280;4356;49.068;8.658;2024-01-11T06:33:40;101058.78;;;13.27;33.55
8637;BME280;4356;49.068;8.658;2024-01-11T06:36:06;101060.31;;;13.30;33.69
8637;BME280;4356;49.068;8.658;2024-01-11T06:38:33;101062.69;;;13.33;33.93
8637;BME280;4356;49.068;8.658;2024-01-11T06:40:59;101047.94;;;13.19;33.90
8637;BME280;4356;49.068;8.658;2024-01-11T06:43:24;101069.78;;;13.34;33.81
8637;BME280;4356;49.068;8.658;2024-01-11T06:45:50;101051.91;;;13.33;33.27
8637;BME280;4356;49.068;8.658;2024-01-11T06:48:15;101058.66;;;13.37;33.33
8637;BME280;4356;49.068;8.658;2024-01-11T06:50:41;101068.28;;;13.39;33.43
8637;BME280;4356;49.068;8.658;2024-01-11T06:53:07;101061.03;;;13.40;33.24
8637;BME280;4356;49.068;8.658;2024-01-11T06:55:32;101070.00;;;13.40;32.80
8637;BME280;4356;49.068;8.658;2024-01-11T06:57:58;101080.63;;;13.42;33.33
8637;BME280;4356;49.068;8.658;2024-01-11T07:00:24;101084.16;;;13.42;33.40
8637;BME280;4356;49.068;8.658;2024-01-11T07:02:49;101092.78;;;13.46;33.06
8637;BME280;4356;49.068;8.658;2024-01-11T07:05:15;101091.09;;;13.45;33.41
8637;BME280;4356;49.068;8.658;2024-01-11T07:07:40;101097.19;;;13.47;33.35
8637;BME280;4356;49.068;8.658;2024-01-11T07:10:06;101104.44;;;13.47;33.24
8637;BME280;4356;49.068;8.658;2024-01-11T07:12:31;101100.88;;;13.46;33.00
8637;BME280;4356;49.068;8.658;2024-01-11T07:14:58;101114.38;;;13.46;33.07
8637;BME280;4356;49.068;8.658;2024-01-11T07:17:23;101121.16;;;13.50;32.92
8637;BME280;4356;49.068;8.658;2024-01-11T07:19:49;101117.66;;;13.50;32.83
8637;BME280;4356;49.068;8.658;2024-01-11T07:22:14;101127.25;;;13.52;32.76
8637;BME280;4356;49.068;8.658;2024-01-11T07:24:40;101134.38;;;13.53;32.93
8637;BME280;4356;49.068;8.658;2024-01-11T07:27:06;101130.66;;;13.54;32.69
8637;BME280;4356;49.068;8.658;2024-01-11T07:29:33;101127.44;;;13.51;33.04
8637;BME280;4356;49.068;8.658;2024-01-11T07:31:59;101137.91;;;13.54;33.15
8637;BME280;4356;49.068;8.658;2024-01-11T07:34:24;101139.28;;;13.58;33.30
8637;BME280;4356;49.068;8.658;2024-01-11T07:36:50;101135.06;;;13.55;32.54
8637;BME280;4356;49.068;8.658;2024-01-11T07:39:15;101147.06;;;13.61;32.83
8637;BME280;4356;49.068;8.658;2024-01-11T07:41:41;101148.75;;;13.62;32.92
8637;BME280;4356;49.068;8.658;2024-01-11T07:44:07;101138.66;;;13.64;32.66
8637;BME280;4356;49.068;8.658;2024-01-11T07:46:32;101152.69;;;13.67;32.71
8637;BME280;4356;49.068;8.658;2024-01-11T07:48:58;101143.72;;;13.67;33.11
8637;BME280;4356;49.068;8.658;2024-01-11T07:51:24;101156.91;;;13.70;32.79
8637;BME280;4356;49.068;8.658;2024-01-11T07:53:50;101163.16;;;13.70;33.05
8637;BME280;4356;49.068;8.658;2024-01-11T07:56:15;101177.34;;;13.72;33.15
8637;BME280;4356;49.068;8.658;2024-01-11T07:58:42;101179.19;;;13.72;32.77
8637;BME280;4356;49.068;8.658;2024-01-11T08:01:07;101178.22;;;13.73;32.82
8637;BME280;4356;49.068;8.658;2024-01-11T08:03:33;101176.38;;;13.73;33.12
8637;BME280;4356;49.068;8.658;2024-01-11T08:06:00;101190.16;;;13.70;33.08
8637;BME280;4356;49.068;8.658;2024-01-11T08:08:25;101186.16;;;13.74;32.86
8637;BME280;4356;49.068;8.658;2024-01-11T08:10:51;101175.00;;;13.77;33.23
8637;BME280;4356;49.068;8.658;2024-01-11T08:13:17;101184.84;;;13.78;32.93
8637;BME280;4356;49.068;8.658;2024-01-11T08:15:43;101186.50;;;13.79;32.73
8637;BME280;4356;49.068;8.658;2024-01-11T08:18:08;101188.06;;;13.82;32.87
8637;BME280;4356;49.068;8.658;2024-01-11T08:20:34;101184.50;;;13.81;32.80
8637;BME280;4356;49.068;8.658;2024-01-11T08:22:59;101191.63;;;13.82;32.56
8637;BME280;4356;49.068;8.658;2024-01-11T08:25:25;101182.50;;;13.83;32.80
8637;BME280;4356;49.068;8.658;2024-01-11T08:27:50;101180.81;;;13.82;32.69
8637;BME280;4356;49.068;8.658;2024-01-11T08:30:16;101179.44;;;13.86;32.57
8637;BME280;4356;49.068;8.658;2024-01-11T08:32:41;101179.16;;;13.89;32.49
8637;BME280;4356;49.068;8.658;2024-01-11T08:35:09;101178.97;;;13.91;32.62
8637;BME280;4356;49.068;8.658;2024-01-11T08:37:37;101182.03;;;13.96;33.24
8637;BME280;4356;49.068;8.658;2024-01-11T08:40:04;101172.91;;;13.97;33.28
8637;BME280;4356;49.068;8.658;2024-01-11T08:42:31;101164.81;;;13.97;32.85
8637;BME280;4356;49.068;8.658;2024-01-11T08:44:57;101184.78;;;14.04;33.09
8637;BME280;4356;49.068;8.658;2024-01-11T08:47:22;101182.91;;;14.04;32.77
8637;BME280;4356;49.068;8.658;2024-01-11T08:49:47;101168.38;;;13.97;32.35
8637;BME280;4356;49.068;8.658;2024-01-11T08:52:13;101183.31;;;14.09;32.54
8637;BME280;4356;49.068;8.658;2024-01-11T08:54:38;101176.19;;;14.08;33.17
8637;BME280;4356;49.068;8.658;2024-01-11T08:57:04;101189.59;;;14.18;32.97
8637;BME280;4356;49.068;8.658;2024-01-11T08:59:29;101189.25;;;14.21;33.24
8637;BME280;4356;49.068;8.658;2024-01-11T09:01:55;101172.03;;;14.22;33.10
8637;BME280;4356;49.068;8.658;2024-01-11T09:04:20;101189.94;;;14.23;32.94
8637;BME280;4356;49.068;8.658;2024-01-11T09:06:45;101199.13;;;14.30;32.79
8637;BME280;4356;49.068;8.658;2024-01-11T09:09:11;101194.06;;;14.35;32.71
8637;BME280;4356;49.068;8.658;2024-01-11T09:11:39;101197.97;;;14.40;32.70
8637;BME280;4356;49.068;8.658;2024-01-11T09:14:06;101196.63;;;14.44;32.77
8637;BME280;4356;49.068;8.658;2024-01-11T09:16:31;101183.09;;;14.44;33.13
8637;BME280;4356;49.068;8.658;2024-01-11T09:18:58;101192.06;;;14.53;32.73
8637;BME280;4356;49.068;8.658;2024-01-11T09:21:26;101189.88;;;14.57;32.24
8637;BME280;4356;49.068;8.658;2024-01-11T09:23:51;101183.47;;;14.58;32.86
8637;BME280;4356;49.068;8.658;2024-01-11T09:26:17;101176.91;;;14.60;32.53
8637;BME280;4356;49.068;8.658;2024-01-11T09:28:42;101188.59;;;14.69;32.58
8637;BME280;4356;49.068;8.658;2024-01-11T09:31:07;101196.53;;;14.70;32.39
8637;BME280;4356;49.068;8.658;2024-01-11T09:33:33;101195.03;;;14.76;32.81
8637;BME280;4356;49.068;8.658;2024-01-11T09:35:58;101198.25;;;14.79;32.92
8637;BME280;4356;49.068;8.658;2024-01-11T09:38:24;101188.78;;;14.83;32.58
8637;BME280;4356;49.068;8.658;2024-01-11T09:41:08;101184.88;;;14.86;32.67
8637;BME280;4356;49.068;8.658;2024-01-11T09:43:34;101194.19;;;14.91;32.43
8637;BME280;4356;49.068;8.658;2024-01-11T09:46:04;101208.91;;;14.97;32.63
8637;BME280;4356;49.068;8.658;2024-01-11T09:48:34;101196.75;;;14.93;32.46
8637;BME280;4356;49.068;8.658;2024-01-11T09:51:04;101213.00;;;15.01;32.95
8637;BME280;4356;49.068;8.658;2024-01-11T09:53:33;101204.50;;;15.04;32.12
8637;BME280;4356;49.068;8.658;2024-01-11T09:55:59;101205.72;;;15.09;32.45
8637;BME280;4356;49.068;8.658;2024-01-11T09:58:26;101203.50;;;15.13;32.82
8637;BME280;4356;49.068;8.658;2024-01-11T10:00:56;101193.53;;;15.13;32.49
8637;BME280;4356;49.068;8.658;2024-01-11T10:03:25;101198.97;;;15.21;32.38
8637;BME280;4356;49.068;8.658;2024-01-11T10:05:57;101195.72;;;15.26;32.31
8637;BME280;4356;49.068;8.658;2024-01-11T10:08:24;101180.84;;;15.30;32.59
8637;BME280;4356;49.068;8.658;2024-01-11T10:10:50;101178.81;;;15.32;32.65
8637;BME280;4356;49.068;8.658;2024-01-11T10:13:16;101174.75;;;15.36;32.31
8637;BME280;4356;49.068;8.658;2024-01-11T10:15:42;101170.38;;;15.43;32.34
8637;BME280;4356;49.068;8.658;2024-01-11T10:18:08;101160.72;;;15.40;32.24
8637;BME280;4356;49.068;8.658;2024-01-11T10:20:33;101174.06;;;15.50;32.13
8637;BME280;4356;49.068;8.658;2024-01-11T10:22:59;101162.22;;;15.51;32.39
8637;BME280;4356;49.068;8.658;2024-01-11T10:25:24;101167.81;;;15.58;32.39
8637;BME280;4356;49.068;8.658;2024-01-11T10:27:50;101169.66;;;15.57;32.36
8637;BME280;4356;49.068;8.658;2024-01-11T10:30:16;101182.19;;;15.66;32.32
8637;BME280;4356;49.068;8.658;2024-01-11T10:32:43;101174.53;;;15.70;32.49
8637;BME280;4356;49.068;8.658;2024-01-11T10:35:09;101176.56;;;15.76;32.36
8637;BME280;4356;49.068;8.658;2024-01-11T10:37:36;101181.63;;;15.79;32.26
8637;BME280;4356;49.068;8.658;2024-01-11T10:40:03;101182.31;;;15.81;32.25
8637;BME280;4356;49.068;8.658;2024-01-11T10:42:35;101179.59;;;15.81;32.14
8637;BME280;4356;49.068;8.658;2024-01-11T10:45:03;101184.84;;;15.90;32.17
8637;BME280;4356;49.068;8.658;2024-01-11T10:47:30;101190.75;;;15.94;32.20
8637;BME280;4356;49.068;8.658;2024-01-11T10:49:56;101191.25;;;15.97;31.97
8637;BME280;4356;49.068;8.658;2024-01-11T10:52:26;101189.53;;;15.96;32.09
8637;BME280;4356;49.068;8.658;2024-01-11T10:54:54;101192.22;;;16.04;32.07
8637;BME280;4356;49.068;8.658;2024-01-11T10:57:20;101183.25;;;16.04;32.19
8637;BME280;4356;49.068;8.658;2024-01-11T10:59:48;101170.53;;;16.04;31.84
8637;BME280;4356;49.068;8.658;2024-01-11T11:02:14;101169.00;;;16.10;32.09
8637;BME280;4356;49.068;8.658;2024-01-11T11:04:41;101163.59;;;16.02;32.09
8637;BME280;4356;49.068;8.658;2024-01-11T11:07:08;101172.50;;;16.18;32.13
8637;BME280;4356;49.068;8.658;2024-01-11T11:09:34;101172.50;;;16.18;31.98
8637;BME280;4356;49.068;8.658;2024-01-11T11:12:01;101164.69;;;16.23;32.22
8637;BME280;4356;49.068;8.658;2024-01-11T11:14:28;101164.34;;;16.26;32.03
8637;BME280;4356;49.068;8.658;2024-01-11T11:16:53;101161.63;;;16.26;31.97
8637;BME280;4356;49.068;8.658;2024-01-11T11:19:20;101146.53;;;16.24;31.98
8637;BME280;4356;49.068;8.658;2024-01-11T11:21:47;101158.38;;;16.31;31.57
8637;BME280;4356;49.068;8.658;2024-01-11T11:24:13;101175.81;;;16.36;31.71
8637;BME280;4356;49.068;8.658;2024-01-11T11:26:38;101172.91;;;16.38;31.67
8637;BME280;4356;49.068;8.658;2024-01-11T11:29:04;101160.19;;;16.38;31.79
8637;BME280;4356;49.068;8.658;2024-01-11T11:31:44;101171.19;;;16.45;31.74
8637;BME280;4356;49.068;8.658;2024-01-11T11:34:19;101159.16;;;16.48;31.81
8637;BME280;4356;49.068;8.658;2024-01-11T11:36:46;101143.88;;;16.46;31.86
8637;BME280;4356;49.068;8.658;2024-01-11T11:39:13;101144.22;;;16.52;31.60
8637;BME280;4356;49.068;8.658;2024-01-11T11:41:39;101149.66;;;16.52;31.56
8637;BME280;4356;49.068;8.658;2024-01-11T11:44:05;101149.94;;;16.57;31.73
8637;BME280;4356;49.068;8.658;2024-01-11T11:46:31;101144.53;;;16.57;31.83
8637;BME280;4356;49.068;8.658;2024-01-11T11:48:58;101140.13;;;16.56;31.71
8637;BME280;4356;49.068;8.658;2024-01-11T11:51:24;101137.72;;;16.61;31.74
8637;BME280;4356;49.068;8.658;2024-01-11T11:53:51;101117.00;;;16.60;31.56
8637;BME280;4356;49.068;8.658;2024-01-11T11:56:22;101123.78;;;16.64;31.72
8637;BME280;4356;49.068;8.658;2024-01-11T11:58:48;101120.72;;;16.67;31.76
8637;BME280;4356;49.068;8.658;2024-01-11T12:01:16;101129.69;;;16.67;32.07
8637;BME280;4356;49.068;8.658;2024-01-11T12:03:45;101115.94;;;16.69;31.69
8637;BME280;4356;49.068;8.658;2024-01-11T12:06:15;101116.78;;;16.69;31.83
8637;BME280;4356;49.068;8.658;2024-01-11T12:08:42;101110.50;;;16.69;31.52
8637;BME280;4356;49.068;8.658;2024-01-11T12:11:08;101110.63;;;16.75;31.77
8637;BME280;4356;49.068;8.658;2024-01-11T12:13:33;101104.16;;;16.76;32.00
8637;BME280;4356;49.068;8.658;2024-01-11T12:15:59;101085.91;;;16.70;31.74
8637;BME280;4356;49.068;8.658;2024-01-11T12:18:25;101085.25;;;16.68;31.86
8637;BME280;4356;49.068;8.658;2024-01-11T12:20:51;101088.25;;;16.73;31.70
8637;BME280;4356;49.068;8.658;2024-01-11T12:23:18;101089.94;;;16.74;32.04
8637;BME280;4356;49.068;8.658;2024-01-11T12:25:43;101112.75;;;16.88;31.67
8637;BME280;4356;49.068;8.658;2024-01-11T12:28:09;101101.78;;;16.81;32.00
8637;BME280;4356;49.068;8.658;2024-01-11T12:30:35;101098.97;;;16.89;31.93
8637;BME280;4356;49.068;8.658;2024-01-11T12:33:01;101102.34;;;16.91;31.84
8637;BME280;4356;49.068;8.658;2024-01-11T12:35:27;101091.88;;;16.88;31.78
8637;BME280;4356;49.068;8.658;2024-01-11T12:37:59;101100.59;;;16.98;32.13
8637;BME280;4356;49.068;8.658;2024-01-11T12:40:26;101091.44;;;16.99;32.19
8637;BME280;4356;49.068;8.658;2024-01-11T12:42:52;101076.88;;;16.92;31.83
8637;BME280;4356;49.068;8.658;2024-01-11T12:45:19;101081.06;;;17.03;32.06
8637;BME280;4356;49.068;8.658;2024-01-11T12:47:45;101083.78;;;17.03;32.25
8637;BME280;4356;49.068;8.658;2024-01-11T12:50:13;101083.56;;;17.04;32.05
8637;BME280;4356;49.068;8.658;2024-01-11T12:52:39;101080.66;;;17.06;32.08
8637;BME280;4356;49.068;8.658;2024-01-11T12:55:06;101080.75;;;17.12;32.03
8637;BME280;4356;49.068;8.658;2024-01-11T12:57:33;101075.53;;;17.11;32.23
8637;BME280;4356;49.068;8.658;2024-01-11T13:00:12;101072.63;;;17.12;32.55
8637;BME280;4356;49.068;8.658;2024-01-11T13:02:40;101072.06;;;17.17;32.55
8637;BME280;4356;49.068;8.658;2024-01-11T13:05:08;101071.88;;;17.18;32.73